Time;durP1;ratioP1;P1;durP2;ratioP2;P2;SDS_P1;SDS_P2;PMS_P1;PMS_P2;Temp;Humidity;BMP_temperature;BMP_pressure;BME280_temperature;BME280_humidity;BME280_pressure;Samples;Min_cycle;Max_cycle;Signal;HPM_P1;HPM_P2
2021/03/13 00:01:24;;;;;;;;;;;;;;;7.68;89.27;99533.41;6278384;22;19907;-75
2021/03/13 00:03:50;;;;;;;;;;;;;;;7.66;89.68;99530.16;6254066;22;19907;-75
2021/03/13 00:06:15;;;;;;;;;;;;;;;7.67;89.29;99531.78;6253604;22;20210;-75
2021/03/13 00:08:40;;;;;;;;;;;;;;;7.66;89.43;99540.34;6253263;22;19911;-75
2021/03/13 00:11:07;;;;;;;;;;;;;;;7.66;89.56;99513.56;6253524;22;19908;-75
2021/03/13 00:13:35;;;;;;;;;;;;;;;7.66;89.61;99529.28;6254137;22;19907;-75
2021/03/13 00:16:04;;;;;;;;;;;;;;;7.66;89.57;99512.72;6256405;22;19915;-75
2021/03/13 00:18:32;;;;;;;;;;;;;;;7.66;89.46;99515.47;6259691;22;20329;-75
2021/03/13 00:21:00;;;;;;;;;;;;;;;7.63;88.96;99503.09;6234229;22;20320;-75
2021/03/13 00:23:29;;;;;;;;;;;;;;;7.64;89.50;99501.97;6258728;22;19911;-75
2021/03/13 00:25:54;;;;;;;;;;;;;;;7.65;89.58;99488.97;6258288;22;19907;-75
2021/03/13 00:28:23;;;;;;;;;;;;;;;7.63;89.73;99480.97;6259212;22;19913;-75
2021/03/13 00:30:49;;;;;;;;;;;;;;;7.63;89.91;99478.22;6282548;22;19907;-75
2021/03/13 00:33:24;;;;;;;;;;;;;;;7.63;89.24;99483.75;6284278;22;19994;-75
2021/03/13 00:35:50;;;;;;;;;;;;;;;7.64;89.51;99485.41;6284851;22;19907;-74
2021/03/13 00:38:23;;;;;;;;;;;;;;;7.63;89.81;99483.75;6284954;22;19921;-74
2021/03/13 00:40:49;;;;;;;;;;;;;;;7.63;89.77;99480.97;6258189;22;19959;-75
2021/03/13 00:43:14;;;;;;;;;;;;;;;7.63;89.91;99475.44;6284365;22;19907;-75
2021/03/13 00:45:43;;;;;;;;;;;;;;;7.63;90.05;99467.16;6232909;22;19978;-75
2021/03/13 00:48:11;;;;;;;;;;;;;;;7.63;89.97;99460.81;6283582;22;19990;-75
2021/03/13 00:50:39;;;;;;;;;;;;;;;7.63;89.96;99452.53;6234976;22;20239;-75
2021/03/13 00:53:07;;;;;;;;;;;;;;;7.62;90.11;99443.41;6257856;22;19907;-75
2021/03/13 00:55:35;;;;;;;;;;;;;;;7.63;90.04;99447.81;6283472;22;20205;-75
2021/03/13 00:58:00;;;;;;;;;;;;;;;7.61;90.23;99461.94;6284885;22;19960;-75
2021/03/13 01:00:35;;;;;;;;;;;;;;;7.58;89.98;99478.31;6258178;22;19907;-75
2021/03/13 01:03:00;;;;;;;;;;;;;;;7.61;89.84;99472.19;6259317;22;19915;-75
2021/03/13 01:05:44;;;;;;;;;;;;;;;7.61;90.05;99461.94;6259920;22;19911;-75
2021/03/13 01:08:20;;;;;;;;;;;;;;;7.61;90.06;99469.41;6261631;22;19922;-75
2021/03/13 01:10:54;;;;;;;;;;;;;;;7.61;90.01;99455.59;6284938;22;20221;-75
2021/03/13 01:13:19;;;;;;;;;;;;;;;7.61;89.66;99433.50;6258214;22;19906;-75
2021/03/13 01:15:57;;;;;;;;;;;;;;;7.63;89.88;99433.19;6284661;22;20219;-76
2021/03/13 01:18:23;;;;;;;;;;;;;;;7.60;89.98;99431.84;6257359;22;19915;-75
2021/03/13 01:20:54;;;;;;;;;;;;;;;7.60;90.00;99421.63;6283517;22;19907;-75
2021/03/13 01:23:22;;;;;;;;;;;;;;;7.60;90.06;99426.31;6284490;22;19929;-75
2021/03/13 01:25:48;;;;;;;;;;;;;;;7.59;90.46;99411.69;6309554;22;19907;-75
2021/03/13 01:28:18;;;;;;;;;;;;;;;7.60;90.64;99415.25;6258804;22;19907;-75
2021/03/13 01:30:49;;;;;;;;;;;;;;;7.60;90.78;99405.06;6258737;22;19907;-75
2021/03/13 01:33:15;;;;;;;;;;;;;;;7.59;90.93;99408.91;6258615;22;19907;-75
2021/03/13 01:35:46;;;;;;;;;;;;;;;7.60;90.98;99423.56;6257979;22;19966;-75
2021/03/13 01:38:20;;;;;;;;;;;;;;;7.60;91.31;99420.78;6260145;22;19950;-75
2021/03/13 01:40:48;;;;;;;;;;;;;;;7.59;91.38;99419.97;6233396;22;19907;-76
2021/03/13 01:43:31;;;;;;;;;;;;;;;7.59;91.51;99408.91;6259602;22;19911;-75
2021/03/13 01:45:57;;;;;;;;;;;;;;;7.59;91.45;99419.97;6263441;22;19910;-75
2021/03/13 01:48:32;;;;;;;;;;;;;;;7.60;91.37;99415.25;6234029;22;19907;-75
2021/03/13 01:51:12;;;;;;;;;;;;;;;7.58;91.21;99406.47;6237344;22;19917;-75
2021/03/13 01:53:38;;;;;;;;;;;;;;;7.60;90.89;99394.00;6287463;22;19973;-76
2021/03/13 01:56:04;;;;;;;;;;;;;;;7.59;91.48;99402.56;6260316;22;19918;-75
2021/03/13 01:58:29;;;;;;;;;;;;;;;7.58;91.46;99392.66;6285405;22;19911;-75
2021/03/13 02:00:57;;;;;;;;;;;;;;;7.57;91.42;99377.19;6234336;22;20320;-75
2021/03/13 02:03:28;;;;;;;;;;;;;;;7.56;91.33;99364.50;6285883;22;19907;-75
2021/03/13 02:06:00;;;;;;;;;;;;;;;7.55;91.01;99363.69;6261042;22;19906;-75
2021/03/13 02:08:51;;;;;;;;;;;;;;;7.56;90.93;99370.03;6260213;22;19911;-75
2021/03/13 02:11:39;;;;;;;;;;;;;;;7.54;91.10;99372.25;6260055;22;19911;-75
2021/03/13 02:14:20;;;;;;;;;;;;;;;7.55;91.10;99362.84;6311078;22;19907;-75
2021/03/13 02:16:58;;;;;;;;;;;;;;;7.54;91.03;99362.03;6259345;22;19914;-75
2021/03/13 02:19:42;;;;;;;;;;;;;;;7.54;91.06;99355.69;6233704;22;20370;-75
2021/03/13 02:22:08;;;;;;;;;;;;;;;7.52;91.14;99339.44;6285525;22;19914;-75
2021/03/13 02:24:41;;;;;;;;;;;;;;;7.53;91.12;99340.25;6285377;22;19911;-75
2021/03/13 02:27:29;;;;;;;;;;;;;;;7.52;90.77;99313.72;6310656;22;19931;-75
2021/03/13 02:30:01;;;;;;;;;;;;;;;7.51;90.79;99317.63;6285397;22;20209;-75
2021/03/13 02:32:54;;;;;;;;;;;;;;;;;;;;;
2021/03/13 02:35:21;;;;;;;;;;;;;;;7.50;90.70;99304.94;6311273;22;19906;-75
2021/03/13 02:37:47;;;;;;;;;;;;;;;7.49;90.75;99295.00;6284721;22;19927;-75
2021/03/13 02:40:15;;;;;;;;;;;;;;;7.48;90.42;99287.84;6234301;22;20304;-75
2021/03/13 02:43:00;;;;;;;;;;;;;;;7.48;90.59;99268.50;6285207;22;20320;-75
2021/03/13 02:45:41;;;;;;;;;;;;;;;7.47;90.42;99266.88;6237015;22;19985;-75
2021/03/13 02:48:16;;;;;;;;;;;;;;;7.47;90.27;99264.91;6235284;22;19911;-75
2021/03/13 02:50:54;;;;;;;;;;;;;;;;;;;;;
2021/03/13 02:53:23;;;;;;;;;;;;;;;7.47;90.75;99247.53;6286666;22;19907;-75
2021/03/13 02:55:53;;;;;;;;;;;;;;;7.46;90.54;99237.59;6259733;22;19914;-75
2021/03/13 02:58:22;;;;;;;;;;;;;;;7.46;90.60;99221.81;6260121;22;19911;-75
2021/03/13 03:00:50;;;;;;;;;;;;;;;7.45;90.69;99227.66;6233473;22;19907;-75
2021/03/13 03:03:43;;;;;;;;;;;;;;;7.44;90.72;99220.50;6262881;22;19906;-74
2021/03/13 03:06:12;;;;;;;;;;;;;;;7.44;91.16;99204.75;6285014;22;20032;-75
2021/03/13 03:09:00;;;;;;;;;;;;;;;7.46;91.26;99209.97;6241855;22;19911;-75
2021/03/13 03:11:26;;;;;;;;;;;;;;;7.47;91.47;99184.00;6284689;22;20240;-75
2021/03/13 03:13:52;;;;;;;;;;;;;;;7.47;91.25;99212.44;6258614;22;19953;-75
2021/03/13 03:16:20;;;;;;;;;;;;;;;7.48;92.35;99193.91;6310651;22;19919;-75
2021/03/13 03:18:49;;;;;;;;;;;;;;;7.48;92.48;99219.59;6259168;22;19918;-75
2021/03/13 03:21:20;;;;;;;;;;;;;;;7.48;92.69;99246.41;6259244;22;19930;-75
2021/03/13 03:23:58;;;;;;;;;;;;;;;7.47;92.22;99261.34;6259611;22;19907;-75
2021/03/13 03:26:29;;;;;;;;;;;;;;;7.48;92.62;99257.44;6259982;22;19910;-75
2021/03/13 03:29:05;;;;;;;;;;;;;;;7.49;92.47;99242.50;6259661;22;19907;-75
2021/03/13 03:31:33;;;;;;;;;;;;;;;7.50;92.29;99255.22;6260096;22;20349;-75
2021/03/13 03:33:58;;;;;;;;;;;;;;;7.50;92.10;99261.53;6234797;22;19907;-75
2021/03/13 03:36:24;;;;;;;;;;;;;;;7.51;92.28;99256.84;6284247;22;20342;-75
2021/03/13 03:38:52;;;;;;;;;;;;;;;7.50;91.99;99266.25;6233095;22;19911;-75
2021/03/13 03:41:18;;;;;;;;;;;;;;;7.51;92.06;99268.69;6285475;22;19913;-75
2021/03/13 03:43:43;;;;;;;;;;;;;;;7.52;92.71;99244.66;6309976;22;19938;-75
2021/03/13 03:46:09;;;;;;;;;;;;;;;7.52;92.83;99252.94;6258548;22;20232;-74
2021/03/13 03:48:36;;;;;;;;;;;;;;;7.50;93.24;99208.25;6234126;22;19929;-74
2021/03/13 03:51:02;;;;;;;;;;;;;;;7.49;93.28;99223.97;6284081;22;19907;-74
2021/03/13 03:53:34;;;;;;;;;;;;;;;7.50;92.40;99216.53;6233439;22;19907;-75
2021/03/13 03:56:00;;;;;;;;;;;;;;;7.46;93.08;99213.53;6284585;22;19907;-75
2021/03/13 03:58:31;;;;;;;;;;;;;;;7.47;93.00;99236.47;6233379;22;19918;-75
2021/03/13 04:01:05;;;;;;;;;;;;;;;7.47;92.65;99233.72;6233367;22;19958;-75
2021/03/13 04:03:35;;;;;;;;;;;;;;;7.46;92.47;99229.28;6284358;22;19906;-75
2021/03/13 04:06:13;;;;;;;;;;;;;;;7.45;92.20;99242.28;6261739;22;19934;-75
2021/03/13 04:08:48;;;;;;;;;;;;;;;7.40;92.42;99272.78;6281716;22;19911;-75
2021/03/13 04:11:17;;;;;;;;;;;;;;;7.41;93.54;99273.59;6309967;22;20377;-75
2021/03/13 04:13:42;;;;;;;;;;;;;;;7.41;93.17;99301.19;6284546;22;19906;-75
2021/03/13 04:16:07;;;;;;;;;;;;;;;7.41;92.77;99292.91;6257910;22;19968;-75
2021/03/13 04:18:35;;;;;;;;;;;;;;;7.39;92.63;99285.75;6311738;22;20284;-75
2021/03/13 04:21:09;;;;;;;;;;;;;;;7.37;92.57;99296.28;6233381;22;19961;-75
2021/03/13 04:23:35;;;;;;;;;;;;;;;7.37;92.25;99307.34;6283559;22;19913;-75
2021/03/13 04:26:01;;;;;;;;;;;;;;;7.34;91.79;99285.84;6284046;22;19989;-75
2021/03/13 04:28:26;;;;;;;;;;;;;;;7.32;91.78;99288.09;6284609;22;19907;-75
2021/03/13 04:30:54;;;;;;;;;;;;;;;7.32;91.63;99288.09;6257484;22;19914;-75
2021/03/13 04:33:30;;;;;;;;;;;;;;;7.29;91.80;99274.06;6259603;22;19930;-75
2021/03/13 04:35:55;;;;;;;;;;;;;;;7.25;91.86;99271.09;6284823;22;19907;-75
2021/03/13 04:38:24;;;;;;;;;;;;;;;7.25;91.67;99273.03;6232863;22;20339;-75
2021/03/13 04:41:00;;;;;;;;;;;;;;;7.21;91.83;99270.03;6284467;22;19986;-75
2021/03/13 04:43:28;;;;;;;;;;;;;;;7.19;91.81;99266.78;6259903;22;19913;-75
2021/03/13 04:46:10;;;;;;;;;;;;;;;7.15;91.53;99265.75;6258380;22;19994;-75
2021/03/13 04:48:40;;;;;;;;;;;;;;;7.15;91.64;99271.25;6234776;22;20355;-76
2021/03/13 04:51:07;;;;;;;;;;;;;;;7.12;91.54;99285.69;6284474;22;20355;-75
2021/03/13 04:56:36;;;;;;;;;;;;;;;7.09;91.30;99278.81;6289022;22;19906;-75
2021/03/13 04:59:02;;;;;;;;;;;;;;;7.04;91.08;99273.38;6283889;22;19986;-75
2021/03/13 05:01:34;;;;;;;;;;;;;;;7.02;91.42;99274.78;6257992;22;19937;-76
2021/03/13 05:04:20;;;;;;;;;;;;;;;7.00;91.28;99283.38;6237066;22;20232;-76
2021/03/13 05:07:06;;;;;;;;;;;;;;;6.96;91.19;99276.00;6261062;22;19915;-75
2021/03/13 05:09:41;;;;;;;;;;;;;;;6.95;90.96;99280.69;6235114;22;19907;-75
2021/03/13 05:12:21;;;;;;;;;;;;;;;6.92;91.03;99295.09;6235906;22;19907;-75
2021/03/13 05:15:00;;;;;;;;;;;;;;;6.92;91.01;99290.41;6258253;22;19911;-76
2021/03/13 05:17:45;;;;;;;;;;;;;;;6.91;91.15;99301.75;6302274;22;19978;-75
2021/03/13 05:25:05;;;;;;;;;;;;;;;6.85;90.93;99312.06;6263502;22;19931;-76
2021/03/13 05:28:05;;;;;;;;;;;;;;;;;;;;;
2021/03/13 05:31:19;;;;;;;;;;;;;;;6.79;91.20;99329.78;6154255;23;20703;-76
2021/03/13 05:34:04;;;;;;;;;;;;;;;6.76;91.06;99335.88;6174377;23;19916;-75
2021/03/13 05:36:58;;;;;;;;;;;;;;;6.75;90.90;99338.97;6147809;23;20000;-76
2021/03/13 05:40:19;;;;;;;;;;;;;;;6.71;91.23;99345.09;6104686;23;19959;-76
2021/03/13 05:43:22;;;;;;;;;;;;;;;6.68;91.21;99342.88;6102686;23;19913;-76
2021/03/13 05:46:41;;;;;;;;;;;;;;;6.66;91.33;99347.09;6101276;23;19979;-76
2021/03/13 05:53:19;;;;;;;;;;;;;;;6.64;91.00;99338.28;6158680;23;19950;-76
2021/03/13 05:56:04;;;;;;;;;;;;;;;6.62;91.12;99355.13;6110271;23;19909;-75
2021/03/13 05:59:16;;;;;;;;;;;;;;;;;;;;;
2021/03/13 06:02:26;;;;;;;;;;;;;;;6.61;91.08;99360.94;6216539;22;20380;-75
2021/03/13 06:05:08;;;;;;;;;;;;;;;6.59;90.78;99357.66;6279022;22;20321;-75
2021/03/13 06:07:49;;;;;;;;;;;;;;;6.58;90.84;99358.78;6253282;22;20287;-75
2021/03/13 06:10:22;;;;;;;;;;;;;;;6.55;90.80;99362.94;6255685;22;19907;-76
2021/03/13 06:12:50;;;;;;;;;;;;;;;6.54;90.82;99363.22;6252806;22;19912;-76
2021/03/13 06:15:48;;;;;;;;;;;;;;;;;;;;;
2021/03/13 06:18:40;;;;;;;;;;;;;;;6.53;90.69;99367.94;6219363;23;20252;-76
2021/03/13 06:21:39;;;;;;;;;;;;;;;6.49;90.52;99375.13;6154864;23;19940;-76
2021/03/13 06:24:47;;;;;;;;;;;;;;;6.46;90.40;99378.50;6037928;23;20296;-76
2021/03/13 06:30:37;;;;;;;;;;;;;;;6.40;90.37;99394.28;6130325;23;19909;-76
2021/03/13 06:33:17;;;;;;;;;;;;;;;6.37;90.26;99394.88;6217543;23;19907;-74
2021/03/13 06:35:51;;;;;;;;;;;;;;;6.33;90.32;99393.81;6248023;23;19907;-76
2021/03/13 06:38:26;;;;;;;;;;;;;;;6.32;90.33;99400.44;6238934;23;19994;-75
2021/03/13 06:41:23;;;;;;;;;;;;;;;6.29;90.17;99409.28;6246574;22;19914;-76
2021/03/13 06:47:43;;;;;;;;;;;;;;;6.23;90.15;99418.75;6247594;22;20388;-75
2021/03/13 06:51:05;;;;;;;;;;;;;;;6.17;90.35;99423.50;6248201;23;19908;-75
2021/03/13 06:54:05;;;;;;;;;;;;;;;6.09;90.26;99437.09;6171461;23;19911;-75
2021/03/13 06:57:21;;;;;;;;;;;;;;;6.07;90.29;99433.78;6168504;23;19907;-76
2021/03/13 07:00:02;;;;;;;;;;;;;;;;;;;;;
2021/03/13 07:03:14;;;;;;;;;;;;;;;6.00;90.34;99440.47;6089493;23;19910;-75
2021/03/13 07:09:11;;;;;;;;;;;;;;;5.94;90.80;99441.63;6047591;23;19910;-76
2021/03/13 07:12:26;;;;;;;;;;;;;;;5.95;90.56;99459.00;6097252;23;19987;-76
2021/03/13 07:15:44;;;;;;;;;;;;;;;5.93;91.06;99461.16;6076803;23;20301;-76
2021/03/13 07:18:54;;;;;;;;;;;;;;;;;;;;;
2021/03/13 07:25:03;;;;;;;;;;;;;;;6.00;90.83;99462.53;6075945;23;19913;-76
2021/03/13 07:27:39;;;;;;;;;;;;;;;6.05;90.76;99464.41;6098121;23;19909;-73
2021/03/13 07:30:17;;;;;;;;;;;;;;;6.12;90.56;99469.59;6098872;23;19945;-77
2021/03/13 07:33:05;;;;;;;;;;;;;;;6.14;90.88;99461.84;6097544;23;19981;-74
2021/03/13 07:35:37;;;;;;;;;;;;;;;6.17;90.88;99466.78;6208798;22;20213;-75
2021/03/13 07:38:04;;;;;;;;;;;;;;;6.22;90.68;99475.00;6234009;22;19911;-75
2021/03/13 07:40:32;;;;;;;;;;;;;;;6.26;90.77;99470.53;6259151;22;19911;-75
2021/03/13 07:43:00;;;;;;;;;;;;;;;6.29;90.80;99475.47;6284942;22;19907;-75
2021/03/13 07:45:31;;;;;;;;;;;;;;;6.31;90.71;99477.97;6284389;22;19929;-75
2021/03/13 07:47:59;;;;;;;;;;;;;;;6.36;90.59;99481.47;6286593;22;20535;-75
2021/03/13 07:50:24;;;;;;;;;;;;;;;6.40;90.70;99487.22;6257712;22;19907;-75
2021/03/13 07:52:50;;;;;;;;;;;;;;;6.42;90.45;99476.75;6310519;22;19966;-74
2021/03/13 07:55:15;;;;;;;;;;;;;;;6.45;90.41;99493.50;6259270;22;19913;-75
2021/03/13 07:57:41;;;;;;;;;;;;;;;6.48;90.44;99497.63;6258455;22;19914;-75
2021/03/13 08:00:13;;;;;;;;;;;;;;;6.52;90.29;99506.13;6310278;22;19918;-75
2021/03/13 08:02:39;;;;;;;;;;;;;;;6.53;90.30;99519.66;6258810;22;19918;-75
2021/03/13 08:05:06;;;;;;;;;;;;;;;6.55;90.06;99527.66;6284141;22;20335;-75
2021/03/13 08:07:51;;;;;;;;;;;;;;;6.57;90.15;99520.69;6284198;22;19907;-74
2021/03/13 08:10:38;;;;;;;;;;;;;;;6.61;90.12;99526.47;6311809;22;19907;-75
2021/03/13 08:13:29;;;;;;;;;;;;;;;6.65;90.17;99541.31;6262531;22;19994;-75
2021/03/13 08:16:18;;;;;;;;;;;;;;;6.67;90.25;99539.91;6284182;22;19941;-76
2021/03/13 08:18:47;;;;;;;;;;;;;;;6.72;90.22;99541.81;6284945;22;19915;-74
2021/03/13 08:21:21;;;;;;;;;;;;;;;6.73;89.92;99540.69;6311859;22;19950;-74
2021/03/13 08:23:47;;;;;;;;;;;;;;;6.75;89.76;99541.22;6309642;22;19906;-74
2021/03/13 08:26:12;;;;;;;;;;;;;;;6.80;90.22;99535.66;6311211;22;19907;-74
2021/03/13 08:31:24;;;;;;;;;;;;;;;6.87;90.24;99549.91;6310372;22;19914;-74
2021/03/13 08:33:50;;;;;;;;;;;;;;;6.92;89.63;99552.63;6311055;22;19917;-74
2021/03/13 08:36:18;;;;;;;;;;;;;;;6.97;90.00;99560.03;6311512;22;19911;-74
2021/03/13 08:39:00;;;;;;;;;;;;;;;7.01;89.44;99563.00;6311156;22;19914;-74
2021/03/13 08:41:41;;;;;;;;;;;;;;;7.07;89.67;99567.34;6309115;22;19946;-74
2021/03/13 08:44:06;;;;;;;;;;;;;;;7.14;89.31;99565.06;6311027;22;19941;-74
2021/03/13 08:46:51;;;;;;;;;;;;;;;7.19;89.64;99567.78;6311375;22;19907;-74
2021/03/13 08:49:26;;;;;;;;;;;;;;;7.27;89.66;99564.38;6310612;22;19930;-74
2021/03/13 08:52:06;;;;;;;;;;;;;;;7.31;89.90;99573.69;6310173;22;19986;-74
2021/03/13 08:54:41;;;;;;;;;;;;;;;7.37;89.68;99566.97;6309968;22;19907;-74
2021/03/13 08:57:06;;;;;;;;;;;;;;;7.43;89.61;99564.97;6283638;22;19911;-74
2021/03/13 08:59:32;;;;;;;;;;;;;;;7.49;89.47;99568.50;6283410;22;20332;-74
2021/03/13 09:02:02;;;;;;;;;;;;;;;7.54;89.15;99569.25;6310925;22;19911;-74
2021/03/13 09:04:28;;;;;;;;;;;;;;;7.59;89.26;99558.13;6283680;22;19931;-74
2021/03/13 09:06:53;;;;;;;;;;;;;;;7.65;89.47;99558.88;6283398;22;19907;-74
2021/03/13 09:09:18;;;;;;;;;;;;;;;7.68;89.11;99554.72;6311142;22;19992;-74
2021/03/13 09:11:45;;;;;;;;;;;;;;;7.74;89.08;99565.38;6311471;22;19910;-74
2021/03/13 09:14:11;;;;;;;;;;;;;;;7.82;89.18;99553.66;6283772;22;19993;-74
2021/03/13 09:16:37;;;;;;;;;;;;;;;7.87;88.70;99563.81;6283533;22;19913;-74
2021/03/13 09:19:03;;;;;;;;;;;;;;;7.94;88.42;99568.97;6310913;22;20469;-74
2021/03/13 09:21:37;;;;;;;;;;;;;;;8.01;88.83;99580.47;6283391;22;20334;-74
2021/03/13 09:24:03;;;;;;;;;;;;;;;8.11;88.74;99574.81;6310938;22;20000;-74
2021/03/13 09:26:29;;;;;;;;;;;;;;;8.22;88.93;99578.25;6311091;22;20316;-74
2021/03/13 09:28:54;;;;;;;;;;;;;;;8.36;88.59;99581.88;6283381;22;19907;-74
2021/03/13 09:31:19;;;;;;;;;;;;;;;8.50;88.56;99577.22;6282412;22;19961;-74
2021/03/13 09:33:45;;;;;;;;;;;;;;;8.61;87.87;99575.13;6311060;22;19907;-74
2021/03/13 09:36:10;;;;;;;;;;;;;;;8.73;87.24;99575.44;6310624;22;19907;-74
2021/03/13 09:38:35;;;;;;;;;;;;;;;8.86;87.16;99573.81;6310684;22;19911;-74
2021/03/13 09:41:01;;;;;;;;;;;;;;;8.99;86.73;99565.81;6311111;22;19929;-74
2021/03/13 09:43:26;;;;;;;;;;;;;;;9.13;86.41;99575.78;6283516;22;20360;-74
2021/03/13 09:45:52;;;;;;;;;;;;;;;9.28;86.40;99577.44;6283548;22;19911;-74
2021/03/13 09:48:17;;;;;;;;;;;;;;;9.46;84.77;99586.75;6283744;22;20346;-74
2021/03/13 09:50:42;;;;;;;;;;;;;;;9.59;84.44;99585.94;6310500;22;19918;-74
2021/03/13 09:53:09;;;;;;;;;;;;;;;9.75;84.01;99580.03;6310877;22;19913;-74
2021/03/13 09:55:35;;;;;;;;;;;;;;;9.90;84.02;99584.44;6310957;22;19915;-74
2021/03/13 09:58:01;;;;;;;;;;;;;;;10.04;83.39;99582.44;6310248;22;19911;-74
2021/03/13 10:00:30;;;;;;;;;;;;;;;10.15;82.84;99580.25;6283233;22;19981;-74
2021/03/13 10:02:56;;;;;;;;;;;;;;;10.26;82.01;99576.91;6311776;22;19986;-74
2021/03/13 10:05:31;;;;;;;;;;;;;;;10.36;82.35;99573.09;6312584;22;19910;-74
2021/03/13 10:07:56;;;;;;;;;;;;;;;10.46;81.69;99581.16;6312599;22;19969;-74
2021/03/13 10:10:22;;;;;;;;;;;;;;;10.59;81.63;99592.53;6312975;22;19907;-74
2021/03/13 10:12:48;;;;;;;;;;;;;;;10.71;82.03;99581.66;6284980;22;19965;-74
2021/03/13 10:15:18;;;;;;;;;;;;;;;10.83;80.93;99583.84;6312649;22;19911;-74
2021/03/13 10:17:50;;;;;;;;;;;;;;;10.95;80.84;99590.47;6312805;22;19915;-74
2021/03/13 10:20:16;;;;;;;;;;;;;;;11.06;80.03;99590.16;6234441;22;19961;-74
2021/03/13 10:22:41;;;;;;;;;;;;;;;11.18;79.53;99585.66;6312861;22;19907;-74
2021/03/13 10:25:07;;;;;;;;;;;;;;;11.29;79.33;99597.31;6285675;22;20252;-74
2021/03/13 10:27:32;;;;;;;;;;;;;;;11.36;78.28;99596.84;6312370;22;19945;-74
2021/03/13 10:30:01;;;;;;;;;;;;;;;11.47;77.96;99602.94;6285117;22;19907;-74
2021/03/13 10:32:29;;;;;;;;;;;;;;;11.56;78.52;99598.22;6311707;22;19907;-74
2021/03/13 10:35:03;;;;;;;;;;;;;;;11.67;78.82;99605.09;6312303;22;19977;-74
2021/03/13 10:37:35;;;;;;;;;;;;;;;11.77;78.70;99601.22;6284467;22;19939;-74
2021/03/13 10:40:01;;;;;;;;;;;;;;;11.91;78.17;99601.09;6285183;22;19907;-74
2021/03/13 10:42:26;;;;;;;;;;;;;;;12.01;78.94;99617.50;6312536;22;19911;-74
2021/03/13 10:44:52;;;;;;;;;;;;;;;12.10;77.47;99609.97;6312173;22;20244;-74
2021/03/13 10:47:27;;;;;;;;;;;;;;;12.16;76.53;99625.38;6285055;22;19913;-74
2021/03/13 10:49:59;;;;;;;;;;;;;;;12.23;75.44;99636.84;6285096;22;20247;-74
2021/03/13 10:52:27;;;;;;;;;;;;;;;12.29;73.78;99632.75;6312182;22;19914;-74
2021/03/13 10:54:53;;;;;;;;;;;;;;;12.37;75.01;99627.50;6312463;22;20220;-74
2021/03/13 10:57:18;;;;;;;;;;;;;;;12.39;74.49;99633.56;6285142;22;19911;-74
2021/03/13 10:59:43;;;;;;;;;;;;;;;12.45;75.26;99635.03;6312284;22;19923;-74
2021/03/13 11:02:09;;;;;;;;;;;;;;;12.50;75.16;99618.16;6284745;22;20347;-74
2021/03/13 11:04:34;;;;;;;;;;;;;;;12.57;75.38;99632.41;6285150;22;19938;-74
2021/03/13 11:11:00;;;;;;;;;;;;;;;12.64;75.56;99607.66;6311784;22;20291;-76
2021/03/13 11:14:10;;;;;;;;;;;;;;;;;;;;;
2021/03/13 11:17:35;;;;;;;;;;;;;;;12.61;75.33;99604.72;6312083;22;19911;-75
2021/03/13 11:20:17;;;;;;;;;;;;;;;12.56;74.64;99608.47;6217332;23;19916;-75
2021/03/13 11:23:02;;;;;;;;;;;;;;;;;;;;;
2021/03/13 11:25:47;;;;;;;;;;;;;;;12.54;74.18;99608.00;6196320;23;20234;-76
2021/03/13 11:28:20;;;;;;;;;;;;;;;12.57;74.09;99600.97;6167583;23;19983;-76
2021/03/13 11:31:22;;;;;;;;;;;;;;;12.64;74.61;99599.28;6165776;23;19916;-76
2021/03/13 11:34:55;;;;;;;;;;;;;;;12.74;74.09;99590.59;6130257;23;19938;-76
2021/03/13 11:37:31;;;;;;;;;;;;;;;;;;;;;
2021/03/13 11:43:47;;;;;;;;;;;;;;;12.98;72.93;99586.44;6108696;23;20247;-76
2021/03/13 11:50:25;;;;;;;;;;;;;;;13.10;71.64;99577.41;6186781;23;19915;-75
2021/03/13 11:53:19;;;;;;;;;;;;;;;;;;;;;
2021/03/13 11:56:06;;;;;;;;;;;;;;;13.26;71.41;99583.25;6249871;22;20339;-76
2021/03/13 12:05:16;;;;;;;;;;;;;;;13.60;71.02;99610.19;6219194;22;20317;-75
2021/03/13 12:08:41;;;;;;;;;;;;;;;13.71;70.01;99616.19;6167575;23;19955;-76
2021/03/13 12:12:00;;;;;;;;;;;;;;;13.82;69.73;99604.31;6107825;23;20600;-76
2021/03/13 12:21:35;;;;;;;;;;;;;;;;;;;;;
2021/03/13 12:27:25;;;;;;;;;;;;;;;12.50;66.19;99712.84;6090835;23;19992;-75
2021/03/13 12:29:50;;;;;;;;;;;;;;;12.34;67.97;99718.09;6212197;23;20545;-75
2021/03/13 12:35:21;;;;;;;;;;;;;;;11.77;69.51;99691.03;6176228;23;19908;-75
2021/03/13 12:37:55;;;;;;;;;;;;;;;11.54;70.03;99700.63;6219520;23;19912;-75
2021/03/13 12:40:23;;;;;;;;;;;;;;;11.26;70.87;99686.09;6197715;22;19915;-75
2021/03/13 12:42:48;;;;;;;;;;;;;;;11.04;71.80;99695.28;6268799;22;20114;-74
2021/03/13 12:45:19;;;;;;;;;;;;;;;10.88;72.34;99703.97;6282042;22;19985;-75
2021/03/13 12:47:46;;;;;;;;;;;;;;;10.76;73.19;99705.69;6257324;22;19918;-74
2021/03/13 12:50:14;;;;;;;;;;;;;;;10.68;73.94;99693.38;6256933;22;19942;-75
2021/03/13 12:52:42;;;;;;;;;;;;;;;10.51;74.68;99661.56;6283353;22;19961;-74
2021/03/13 12:55:07;;;;;;;;;;;;;;;10.44;74.97;99638.13;6283899;22;19910;-75
2021/03/13 12:57:35;;;;;;;;;;;;;;;10.35;75.35;99674.16;6284538;22;19911;-75
2021/03/13 13:00:01;;;;;;;;;;;;;;;10.24;75.59;99644.97;6284144;22;19985;-76
2021/03/13 13:02:35;;;;;;;;;;;;;;;10.15;76.17;99619.91;6233211;22;19914;-75
2021/03/13 13:05:13;;;;;;;;;;;;;;;10.10;76.07;99622.00;6258166;22;20012;-75
2021/03/13 13:07:46;;;;;;;;;;;;;;;10.06;76.79;99630.94;6259672;22;19906;-75
2021/03/13 13:10:17;;;;;;;;;;;;;;;10.06;77.53;99628.16;6284937;22;19957;-75
2021/03/13 13:12:51;;;;;;;;;;;;;;;10.13;78.41;99624.13;6234601;22;20097;-76
2021/03/13 13:15:31;;;;;;;;;;;;;;;10.20;78.59;99624.53;6233137;22;19915;-74
2021/03/13 13:18:16;;;;;;;;;;;;;;;10.29;78.83;99625.47;6234652;22;19911;-75
2021/03/13 13:20:51;;;;;;;;;;;;;;;10.41;79.47;99631.25;6262197;22;20321;-75
2021/03/13 13:23:17;;;;;;;;;;;;;;;10.50;79.28;99621.06;6232690;22;19952;-75
2021/03/13 13:25:43;;;;;;;;;;;;;;;10.64;79.73;99614.59;6257190;22;19907;-75
2021/03/13 13:28:08;;;;;;;;;;;;;;;10.73;79.76;99607.97;6309538;22;19907;-75
2021/03/13 13:30:36;;;;;;;;;;;;;;;10.85;79.46;99601.84;6231509;22;19911;-75
2021/03/13 13:33:02;;;;;;;;;;;;;;;10.98;78.83;99608.47;6258352;22;19907;-75
2021/03/13 13:35:28;;;;;;;;;;;;;;;11.09;79.32;99609.00;6232808;22;19938;-75
2021/03/13 13:37:53;;;;;;;;;;;;;;;11.15;79.09;99641.06;6259231;22;19914;-75
2021/03/13 13:40:19;;;;;;;;;;;;;;;11.20;79.17;99640.94;6285610;22;19986;-75
2021/03/13 13:42:44;;;;;;;;;;;;;;;11.17;79.68;99672.13;6311799;22;20344;-74
2021/03/13 13:45:11;;;;;;;;;;;;;;;11.15;79.14;99650.22;6259610;22;19907;-75
2021/03/13 13:47:36;;;;;;;;;;;;;;;11.10;79.55;99649.53;6234961;22;19930;-75
2021/03/13 13:50:02;;;;;;;;;;;;;;;11.04;79.83;99656.38;6285896;22;19914;-75
2021/03/13 13:52:30;;;;;;;;;;;;;;;11.01;80.05;99652.28;6260153;22;19907;-75
2021/03/13 13:54:56;;;;;;;;;;;;;;;10.95;79.87;99668.25;6311322;22;19907;-75
2021/03/13 13:57:21;;;;;;;;;;;;;;;10.84;80.55;99674.38;6259987;22;20005;-75
2021/03/13 13:59:46;;;;;;;;;;;;;;;10.78;80.23;99670.06;6260429;22;19926;-75
2021/03/13 14:02:12;;;;;;;;;;;;;;;10.76;79.34;99659.28;6259633;22;19917;-75
2021/03/13 14:04:39;;;;;;;;;;;;;;;10.71;79.27;99665.78;6260486;22;19907;-75
2021/03/13 14:07:08;;;;;;;;;;;;;;;10.69;79.98;99665.28;6259118;22;19994;-75
2021/03/13 14:09:33;;;;;;;;;;;;;;;10.68;80.15;99654.50;6308787;22;19907;-75
2021/03/13 14:11:59;;;;;;;;;;;;;;;10.69;80.31;99654.16;6259616;22;20359;-75
2021/03/13 14:14:28;;;;;;;;;;;;;;;10.70;80.35;99652.25;6234432;22;19917;-75
2021/03/13 14:16:53;;;;;;;;;;;;;;;10.70;79.86;99636.38;6260393;22;19994;-75
2021/03/13 14:19:18;;;;;;;;;;;;;;;10.67;79.31;99644.50;6285131;22;19915;-75
2021/03/13 14:21:44;;;;;;;;;;;;;;;10.67;79.22;99644.50;6285423;22;20016;-75
2021/03/13 14:24:11;;;;;;;;;;;;;;;10.67;79.87;99636.19;6259321;22;19913;-76
2021/03/13 14:26:37;;;;;;;;;;;;;;;10.65;79.75;99632.91;6285351;22;19976;-75
2021/03/13 14:29:02;;;;;;;;;;;;;;;10.63;79.80;99626.84;6234156;22;19911;-75
2021/03/13 14:31:33;;;;;;;;;;;;;;;10.62;79.91;99628.81;6258205;22;19911;-75
2021/03/13 14:33:59;;;;;;;;;;;;;;;10.64;80.25;99631.25;6312538;22;20409;-75
2021/03/13 14:36:24;;;;;;;;;;;;;;;10.64;79.74;99626.56;6309127;22;19911;-75
2021/03/13 14:38:50;;;;;;;;;;;;;;;10.66;79.58;99615.94;6234017;22;19933;-75
2021/03/13 14:41:15;;;;;;;;;;;;;;;10.70;79.34;99618.91;6311001;22;19968;-75
2021/03/13 14:43:40;;;;;;;;;;;;;;;10.73;79.32;99610.75;6233680;22;19907;-75